Airfield :
LOGIN :

Register | Disclaimer

   EN    FR    IT 

 










Legend :    VFR   Marginal VFR   IFR   Intensive IFR   Very Intensive IFR
Visi :
Ceiling :
>= 8 km
>= 3000ft
5 to 8 km
1000 to 3000 ft
1500m to 5 km
500 to 1000 ft
800 to 1500m
200 to 500 ft
< 800m
< 200 ft
Symbols :   Thunderstorms  Fog  Heavy snow  Heavy precipitations  Wind > 20 kt
SIGMETs :     Misc.  Thunderstorms  Icing  Turbulence  Mountain Waves  Volcanic Ashes







- Airport Elevation : 325 ft
- IATA code : BES
- Download approach charts


LFRB - Brest

CURRENT METAR :
  • 211130Z AUTO 00000KT 9999 BKN020 OVC026 12/07 Q1034 NOSIG

EXPIRED METARs :
  • 211100Z AUTO VRB02KT 9999 FEW017 BKN030 13/08 Q1034 NOSIG
  • 211030Z AUTO VRB02KT 9999 FEW012 OVC030 12/09 Q1034 NOSIG
  • 211000Z AUTO VRB02KT 9999 BKN011 OVC031 11/09 Q1035 BECMG SCT025
  • 210930Z AUTO VRB02KT 9999 SCT008 OVC031 11/09 Q1035 NOSIG
  • 210900Z AUTO VRB02KT 9999 FEW007 OVC030 10/09 Q1034 NOSIG

TAF TAF LFRB
Valid from the 21 at 12:00 until the 22 at 18:00 UTC


211100Z 2112/2218 VRB03KT 9999 FEW015 OVC031
TEMPO 2200/2206 OVC008
BECMG 2214/2216 SCT030
ATIS : +33 2 98 32 02 71
No reported NOTAMs for that airfield.



MET'MAP, your aeronautical weather chart ! - Copyright ORBIFLY December 2007 - Disclaimer

ORBIFLY MET'MAP TEAM :

Programming & Development : Alexandra Zaïnal
Concept & Development : Baudouin d'Aumeries
Co-Development & Prog : Marc-Olivier Méhu
Technical & hardware support : Manuel Goepfert

Contact : metmap@orbifly.com




SOURCES & CREDITS :

   NOAA